sensor_id;sensor_type;location;lat;lon;timestamp;P1;durP1;ratioP1;P2;durP2;ratioP2
25091;SDS011;13082;52.374;4.946;2024-01-06T00:00:15;4.17;;;3.20;;
25091;SDS011;13082;52.374;4.946;2024-01-06T00:02:41;5.03;;;3.90;;
25091;SDS011;13082;52.374;4.946;2024-01-06T00:05:07;4.17;;;3.63;;
25091;SDS011;13082;52.374;4.946;2024-01-06T00:07:33;3.33;;;2.83;;
25091;SDS011;13082;52.374;4.946;2024-01-06T00:09:58;3.50;;;3.20;;
25091;SDS011;13082;52.374;4.946;2024-01-06T00:12:24;8.10;;;4.23;;
25091;SDS011;13082;52.374;4.946;2024-01-06T00:14:49;4.73;;;3.80;;
25091;SDS011;13082;52.374;4.946;2024-01-06T00:17:15;6.77;;;3.87;;
25091;SDS011;13082;52.374;4.946;2024-01-06T00:19:42;4.57;;;3.67;;
25091;SDS011;13082;52.374;4.946;2024-01-06T00:22:08;6.33;;;4.43;;
25091;SDS011;13082;52.374;4.946;2024-01-06T00:24:33;6.73;;;4.20;;
25091;SDS011;13082;52.374;4.946;2024-01-06T00:26:59;7.17;;;5.10;;
25091;SDS011;13082;52.374;4.946;2024-01-06T00:29:25;8.87;;;5.00;;
25091;SDS011;13082;52.374;4.946;2024-01-06T00:31:50;8.10;;;4.40;;
25091;SDS011;13082;52.374;4.946;2024-01-06T00:34:16;8.40;;;4.90;;
25091;SDS011;13082;52.374;4.946;2024-01-06T00:36:41;9.33;;;4.93;;
25091;SDS011;13082;52.374;4.946;2024-01-06T00:39:07;7.13;;;4.87;;
25091;SDS011;13082;52.374;4.946;2024-01-06T00:41:33;8.60;;;4.80;;
25091;SDS011;13082;52.374;4.946;2024-01-06T00:43:58;10.23;;;5.10;;
25091;SDS011;13082;52.374;4.946;2024-01-06T00:46:24;7.20;;;5.30;;
25091;SDS011;13082;52.374;4.946;2024-01-06T00:48:49;6.50;;;4.60;;
25091;SDS011;13082;52.374;4.946;2024-01-06T00:51:15;10.67;;;5.40;;
25091;SDS011;13082;52.374;4.946;2024-01-06T00:53:41;9.33;;;5.30;;
25091;SDS011;13082;52.374;4.946;2024-01-06T00:56:06;8.23;;;5.00;;
25091;SDS011;13082;52.374;4.946;2024-01-06T00:58:32;9.60;;;5.30;;
25091;SDS011;13082;52.374;4.946;2024-01-06T01:00:57;8.37;;;4.80;;
25091;SDS011;13082;52.374;4.946;2024-01-06T01:03:23;6.60;;;4.97;;
25091;SDS011;13082;52.374;4.946;2024-01-06T01:05:48;7.80;;;4.83;;
25091;SDS011;13082;52.374;4.946;2024-01-06T01:08:14;6.83;;;5.03;;
25091;SDS011;13082;52.374;4.946;2024-01-06T01:10:40;9.53;;;4.60;;
25091;SDS011;13082;52.374;4.946;2024-01-06T01:13:05;8.07;;;5.47;;
25091;SDS011;13082;52.374;4.946;2024-01-06T01:15:31;5.17;;;4.67;;
25091;SDS011;13082;52.374;4.946;2024-01-06T01:17:56;5.60;;;4.47;;
25091;SDS011;13082;52.374;4.946;2024-01-06T01:20:22;8.10;;;5.23;;
25091;SDS011;13082;52.374;4.946;2024-01-06T01:22:48;5.40;;;4.47;;
25091;SDS011;13082;52.374;4.946;2024-01-06T01:25:13;6.07;;;3.60;;
25091;SDS011;13082;52.374;4.946;2024-01-06T01:27:39;8.77;;;3.93;;
25091;SDS011;13082;52.374;4.946;2024-01-06T01:30:04;5.53;;;4.33;;
25091;SDS011;13082;52.374;4.946;2024-01-06T01:32:31;4.30;;;3.87;;
25091;SDS011;13082;52.374;4.946;2024-01-06T01:34:57;5.77;;;4.20;;
25091;SDS011;13082;52.374;4.946;2024-01-06T01:37:23;7.07;;;4.63;;
25091;SDS011;13082;52.374;4.946;2024-01-06T01:39:48;5.93;;;3.97;;
25091;SDS011;13082;52.374;4.946;2024-01-06T01:42:14;7.70;;;4.23;;
25091;SDS011;13082;52.374;4.946;2024-01-06T01:44:39;6.23;;;3.50;;
25091;SDS011;13082;52.374;4.946;2024-01-06T01:47:05;7.87;;;3.77;;
25091;SDS011;13082;52.374;4.946;2024-01-06T01:49:31;5.13;;;3.60;;
25091;SDS011;13082;52.374;4.946;2024-01-06T01:51:57;4.40;;;3.60;;
25091;SDS011;13082;52.374;4.946;2024-01-06T01:54:23;3.10;;;2.77;;
25091;SDS011;13082;52.374;4.946;2024-01-06T01:56:49;5.50;;;3.10;;
25091;SDS011;13082;52.374;4.946;2024-01-06T01:59:16;3.37;;;3.00;;
25091;SDS011;13082;52.374;4.946;2024-01-06T02:01:44;4.40;;;3.23;;
25091;SDS011;13082;52.374;4.946;2024-01-06T02:04:10;7.07;;;4.10;;
25091;SDS011;13082;52.374;4.946;2024-01-06T02:06:36;6.47;;;3.70;;
25091;SDS011;13082;52.374;4.946;2024-01-06T02:09:02;5.00;;;3.90;;
25091;SDS011;13082;52.374;4.946;2024-01-06T02:11:28;5.93;;;3.67;;
25091;SDS011;13082;52.374;4.946;2024-01-06T02:13:53;7.13;;;4.40;;
25091;SDS011;13082;52.374;4.946;2024-01-06T02:16:19;5.80;;;4.83;;
25091;SDS011;13082;52.374;4.946;2024-01-06T02:18:45;5.67;;;3.50;;
25091;SDS011;13082;52.374;4.946;2024-01-06T02:21:11;5.03;;;3.80;;
25091;SDS011;13082;52.374;4.946;2024-01-06T02:23:36;5.70;;;4.13;;
25091;SDS011;13082;52.374;4.946;2024-01-06T02:26:02;4.93;;;4.20;;
25091;SDS011;13082;52.374;4.946;2024-01-06T02:28:28;4.63;;;4.23;;
25091;SDS011;13082;52.374;4.946;2024-01-06T02:30:54;8.07;;;4.20;;
25091;SDS011;13082;52.374;4.946;2024-01-06T02:33:19;5.40;;;4.33;;
25091;SDS011;13082;52.374;4.946;2024-01-06T02:35:45;6.70;;;4.63;;
25091;SDS011;13082;52.374;4.946;2024-01-06T02:38:11;7.50;;;4.30;;
25091;SDS011;13082;52.374;4.946;2024-01-06T02:40:37;5.30;;;4.00;;
25091;SDS011;13082;52.374;4.946;2024-01-06T02:43:02;5.30;;;4.10;;
25091;SDS011;13082;52.374;4.946;2024-01-06T02:45:28;4.53;;;3.90;;
25091;SDS011;13082;52.374;4.946;2024-01-06T02:47:54;7.73;;;4.60;;
25091;SDS011;13082;52.374;4.946;2024-01-06T02:50:19;7.10;;;3.90;;
25091;SDS011;13082;52.374;4.946;2024-01-06T02:52:45;10.37;;;4.83;;
25091;SDS011;13082;52.374;4.946;2024-01-06T02:55:11;7.37;;;4.27;;
25091;SDS011;13082;52.374;4.946;2024-01-06T02:57:37;7.50;;;4.07;;
25091;SDS011;13082;52.374;4.946;2024-01-06T03:00:03;5.47;;;4.10;;
25091;SDS011;13082;52.374;4.946;2024-01-06T03:02:29;7.87;;;3.97;;
25091;SDS011;13082;52.374;4.946;2024-01-06T03:04:55;5.37;;;4.60;;
25091;SDS011;13082;52.374;4.946;2024-01-06T03:07:21;6.13;;;4.13;;
25091;SDS011;13082;52.374;4.946;2024-01-06T03:09:47;7.87;;;4.80;;
25091;SDS011;13082;52.374;4.946;2024-01-06T03:12:12;4.90;;;3.70;;
25091;SDS011;13082;52.374;4.946;2024-01-06T03:14:38;4.53;;;3.40;;
25091;SDS011;13082;52.374;4.946;2024-01-06T03:17:04;5.87;;;3.90;;
25091;SDS011;13082;52.374;4.946;2024-01-06T03:19:32;5.90;;;3.40;;
25091;SDS011;13082;52.374;4.946;2024-01-06T03:21:58;4.83;;;3.63;;
25091;SDS011;13082;52.374;4.946;2024-01-06T03:24:24;4.90;;;3.57;;
25091;SDS011;13082;52.374;4.946;2024-01-06T03:26:51;4.37;;;3.40;;
25091;SDS011;13082;52.374;4.946;2024-01-06T03:29:16;5.63;;;3.90;;
25091;SDS011;13082;52.374;4.946;2024-01-06T03:31:42;4.93;;;3.77;;
25091;SDS011;13082;52.374;4.946;2024-01-06T03:34:09;5.17;;;3.33;;
25091;SDS011;13082;52.374;4.946;2024-01-06T03:36:36;3.90;;;3.30;;
25091;SDS011;13082;52.374;4.946;2024-01-06T03:39:02;3.97;;;3.30;;
25091;SDS011;13082;52.374;4.946;2024-01-06T03:41:28;5.27;;;3.40;;
25091;SDS011;13082;52.374;4.946;2024-01-06T03:43:53;5.53;;;4.37;;
25091;SDS011;13082;52.374;4.946;2024-01-06T03:46:19;6.57;;;4.03;;
25091;SDS011;13082;52.374;4.946;2024-01-06T03:48:44;4.87;;;2.90;;
25091;SDS011;13082;52.374;4.946;2024-01-06T03:51:12;4.13;;;3.50;;
25091;SDS011;13082;52.374;4.946;2024-01-06T03:53:38;7.73;;;3.50;;
25091;SDS011;13082;52.374;4.946;2024-01-06T03:56:05;5.97;;;3.73;;
25091;SDS011;13082;52.374;4.946;2024-01-06T03:58:30;5.97;;;3.70;;
25091;SDS011;13082;52.374;4.946;2024-01-06T04:00:56;5.37;;;4.10;;
25091;SDS011;13082;52.374;4.946;2024-01-06T04:03:22;6.30;;;4.47;;
25091;SDS011;13082;52.374;4.946;2024-01-06T04:05:47;5.63;;;4.30;;
25091;SDS011;13082;52.374;4.946;2024-01-06T04:08:13;6.40;;;4.13;;
25091;SDS011;13082;52.374;4.946;2024-01-06T04:10:38;5.70;;;4.10;;
25091;SDS011;13082;52.374;4.946;2024-01-06T04:13:06;9.03;;;4.60;;
25091;SDS011;13082;52.374;4.946;2024-01-06T04:15:32;10.10;;;4.37;;
25091;SDS011;13082;52.374;4.946;2024-01-06T04:18:00;6.33;;;4.37;;
25091;SDS011;13082;52.374;4.946;2024-01-06T04:20:28;5.17;;;4.27;;
25091;SDS011;13082;52.374;4.946;2024-01-06T04:22:53;5.20;;;3.80;;
25091;SDS011;13082;52.374;4.946;2024-01-06T04:25:19;8.33;;;3.90;;
25091;SDS011;13082;52.374;4.946;2024-01-06T04:27:45;5.03;;;4.43;;
25091;SDS011;13082;52.374;4.946;2024-01-06T04:30:12;8.80;;;3.93;;
25091;SDS011;13082;52.374;4.946;2024-01-06T04:32:38;8.07;;;4.17;;
25091;SDS011;13082;52.374;4.946;2024-01-06T04:35:04;5.60;;;4.20;;
25091;SDS011;13082;52.374;4.946;2024-01-06T04:37:30;6.07;;;4.37;;
25091;SDS011;13082;52.374;4.946;2024-01-06T04:39:55;9.33;;;4.40;;
25091;SDS011;13082;52.374;4.946;2024-01-06T04:42:22;7.50;;;5.37;;
25091;SDS011;13082;52.374;4.946;2024-01-06T04:44:48;6.70;;;3.87;;
25091;SDS011;13082;52.374;4.946;2024-01-06T04:47:14;6.33;;;3.77;;
25091;SDS011;13082;52.374;4.946;2024-01-06T04:49:40;5.00;;;3.33;;
25091;SDS011;13082;52.374;4.946;2024-01-06T04:52:05;5.40;;;3.73;;
25091;SDS011;13082;52.374;4.946;2024-01-06T04:54:31;4.80;;;3.43;;
25091;SDS011;13082;52.374;4.946;2024-01-06T04:56:58;5.57;;;4.10;;
25091;SDS011;13082;52.374;4.946;2024-01-06T04:59:23;6.90;;;3.60;;
25091;SDS011;13082;52.374;4.946;2024-01-06T05:01:49;6.77;;;3.50;;
25091;SDS011;13082;52.374;4.946;2024-01-06T05:04:16;8.43;;;3.83;;
25091;SDS011;13082;52.374;4.946;2024-01-06T05:06:42;6.83;;;4.40;;
25091;SDS011;13082;52.374;4.946;2024-01-06T05:09:08;5.87;;;3.93;;
25091;SDS011;13082;52.374;4.946;2024-01-06T05:11:33;6.23;;;4.67;;
25091;SDS011;13082;52.374;4.946;2024-01-06T05:13:59;5.63;;;3.97;;
25091;SDS011;13082;52.374;4.946;2024-01-06T05:16:25;5.90;;;4.20;;
25091;SDS011;13082;52.374;4.946;2024-01-06T05:18:51;5.40;;;3.83;;
25091;SDS011;13082;52.374;4.946;2024-01-06T05:21:16;7.87;;;4.00;;
25091;SDS011;13082;52.374;4.946;2024-01-06T05:23:42;8.30;;;4.50;;
25091;SDS011;13082;52.374;4.946;2024-01-06T05:26:08;4.67;;;4.10;;
25091;SDS011;13082;52.374;4.946;2024-01-06T05:28:34;4.90;;;4.07;;
25091;SDS011;13082;52.374;4.946;2024-01-06T05:31:00;5.93;;;3.90;;
25091;SDS011;13082;52.374;4.946;2024-01-06T05:33:25;7.40;;;4.37;;
25091;SDS011;13082;52.374;4.946;2024-01-06T05:35:51;4.27;;;3.60;;
25091;SDS011;13082;52.374;4.946;2024-01-06T05:38:16;6.90;;;4.10;;
25091;SDS011;13082;52.374;4.946;2024-01-06T05:40:42;5.73;;;3.83;;
25091;SDS011;13082;52.374;4.946;2024-01-06T05:43:08;6.60;;;4.00;;
25091;SDS011;13082;52.374;4.946;2024-01-06T05:45:33;4.43;;;3.53;;
25091;SDS011;13082;52.374;4.946;2024-01-06T05:47:59;4.80;;;3.60;;
25091;SDS011;13082;52.374;4.946;2024-01-06T05:50:25;6.00;;;4.33;;
25091;SDS011;13082;52.374;4.946;2024-01-06T05:52:50;5.73;;;3.60;;
25091;SDS011;13082;52.374;4.946;2024-01-06T05:55:17;5.27;;;3.87;;
25091;SDS011;13082;52.374;4.946;2024-01-06T05:57:42;4.20;;;3.40;;
25091;SDS011;13082;52.374;4.946;2024-01-06T06:00:08;6.67;;;4.03;;
25091;SDS011;13082;52.374;4.946;2024-01-06T06:02:35;7.03;;;3.63;;
25091;SDS011;13082;52.374;4.946;2024-01-06T06:05:01;5.83;;;4.40;;
25091;SDS011;13082;52.374;4.946;2024-01-06T06:07:27;7.80;;;4.10;;
25091;SDS011;13082;52.374;4.946;2024-01-06T06:09:52;6.37;;;3.87;;
25091;SDS011;13082;52.374;4.946;2024-01-06T06:12:19;4.23;;;3.83;;
25091;SDS011;13082;52.374;4.946;2024-01-06T06:14:44;6.50;;;4.57;;
25091;SDS011;13082;52.374;4.946;2024-01-06T06:17:10;6.10;;;3.73;;
25091;SDS011;13082;52.374;4.946;2024-01-06T06:19:35;4.50;;;3.50;;
25091;SDS011;13082;52.374;4.946;2024-01-06T06:22:01;5.97;;;3.97;;
25091;SDS011;13082;52.374;4.946;2024-01-06T06:24:27;4.20;;;3.53;;
25091;SDS011;13082;52.374;4.946;2024-01-06T06:26:52;4.57;;;3.73;;
25091;SDS011;13082;52.374;4.946;2024-01-06T06:29:18;4.57;;;3.37;;
25091;SDS011;13082;52.374;4.946;2024-01-06T06:31:45;4.13;;;3.73;;
25091;SDS011;13082;52.374;4.946;2024-01-06T06:34:11;4.17;;;3.50;;
25091;SDS011;13082;52.374;4.946;2024-01-06T06:36:37;3.53;;;3.17;;
25091;SDS011;13082;52.374;4.946;2024-01-06T06:39:03;5.03;;;3.40;;
25091;SDS011;13082;52.374;4.946;2024-01-06T06:41:29;6.23;;;4.07;;
25091;SDS011;13082;52.374;4.946;2024-01-06T06:43:56;4.93;;;3.90;;
25091;SDS011;13082;52.374;4.946;2024-01-06T06:46:25;5.20;;;3.67;;
25091;SDS011;13082;52.374;4.946;2024-01-06T06:48:50;6.77;;;3.90;;
25091;SDS011;13082;52.374;4.946;2024-01-06T06:51:16;9.17;;;4.13;;
25091;SDS011;13082;52.374;4.946;2024-01-06T06:53:41;8.20;;;4.73;;
25091;SDS011;13082;52.374;4.946;2024-01-06T06:56:07;5.27;;;4.60;;
25091;SDS011;13082;52.374;4.946;2024-01-06T06:58:33;5.37;;;4.00;;
25091;SDS011;13082;52.374;4.946;2024-01-06T07:00:58;6.60;;;4.83;;
25091;SDS011;13082;52.374;4.946;2024-01-06T07:03:24;5.03;;;4.50;;
25091;SDS011;13082;52.374;4.946;2024-01-06T07:05:51;6.67;;;4.43;;
25091;SDS011;13082;52.374;4.946;2024-01-06T07:08:17;5.10;;;4.47;;
25091;SDS011;13082;52.374;4.946;2024-01-06T07:10:43;9.70;;;4.93;;
25091;SDS011;13082;52.374;4.946;2024-01-06T07:13:08;8.13;;;4.83;;
25091;SDS011;13082;52.374;4.946;2024-01-06T07:15:34;7.80;;;4.60;;
25091;SDS011;13082;52.374;4.946;2024-01-06T07:17:59;7.97;;;5.47;;
25091;SDS011;13082;52.374;4.946;2024-01-06T07:20:25;6.87;;;5.30;;
25091;SDS011;13082;52.374;4.946;2024-01-06T07:22:51;8.23;;;5.63;;
25091;SDS011;13082;52.374;4.946;2024-01-06T07:25:16;6.50;;;5.30;;
25091;SDS011;13082;52.374;4.946;2024-01-06T07:27:42;7.23;;;5.43;;
25091;SDS011;13082;52.374;4.946;2024-01-06T07:30:07;11.80;;;5.40;;
25091;SDS011;13082;52.374;4.946;2024-01-06T07:32:33;7.50;;;5.63;;
25091;SDS011;13082;52.374;4.946;2024-01-06T07:34:59;6.17;;;5.17;;
25091;SDS011;13082;52.374;4.946;2024-01-06T07:37:25;8.07;;;5.23;;
25091;SDS011;13082;52.374;4.946;2024-01-06T07:39:50;7.73;;;5.53;;
25091;SDS011;13082;52.374;4.946;2024-01-06T07:42:16;7.50;;;5.57;;
25091;SDS011;13082;52.374;4.946;2024-01-06T07:44:42;8.77;;;5.47;;
25091;SDS011;13082;52.374;4.946;2024-01-06T07:47:09;7.90;;;6.00;;
25091;SDS011;13082;52.374;4.946;2024-01-06T07:49:35;9.33;;;5.67;;
25091;SDS011;13082;52.374;4.946;2024-01-06T07:52:00;8.00;;;5.43;;
25091;SDS011;13082;52.374;4.946;2024-01-06T07:54:26;6.40;;;5.70;;
25091;SDS011;13082;52.374;4.946;2024-01-06T07:56:52;9.03;;;6.80;;
25091;SDS011;13082;52.374;4.946;2024-01-06T07:59:18;8.27;;;6.17;;
25091;SDS011;13082;52.374;4.946;2024-01-06T08:01:43;14.37;;;6.50;;
25091;SDS011;13082;52.374;4.946;2024-01-06T08:04:09;10.43;;;6.57;;
25091;SDS011;13082;52.374;4.946;2024-01-06T08:06:34;7.60;;;5.63;;
25091;SDS011;13082;52.374;4.946;2024-01-06T08:09:01;8.27;;;5.23;;
25091;SDS011;13082;52.374;4.946;2024-01-06T08:11:26;8.70;;;6.33;;
25091;SDS011;13082;52.374;4.946;2024-01-06T08:13:52;7.30;;;5.20;;
25091;SDS011;13082;52.374;4.946;2024-01-06T08:16:18;6.37;;;5.67;;
25091;SDS011;13082;52.374;4.946;2024-01-06T08:18:44;7.67;;;5.23;;
25091;SDS011;13082;52.374;4.946;2024-01-06T08:21:10;6.20;;;5.00;;
25091;SDS011;13082;52.374;4.946;2024-01-06T08:23:36;7.18;;;4.53;;
25091;SDS011;13082;52.374;4.946;2024-01-06T08:26:02;4.50;;;4.03;;
25091;SDS011;13082;52.374;4.946;2024-01-06T08:28:28;6.67;;;4.07;;
25091;SDS011;13082;52.374;4.946;2024-01-06T08:30:54;7.23;;;3.90;;
25091;SDS011;13082;52.374;4.946;2024-01-06T08:33:20;5.13;;;4.23;;
25091;SDS011;13082;52.374;4.946;2024-01-06T08:35:46;6.27;;;4.17;;
25091;SDS011;13082;52.374;4.946;2024-01-06T08:38:12;5.57;;;4.20;;
25091;SDS011;13082;52.374;4.946;2024-01-06T08:40:37;14.50;;;4.67;;
25091;SDS011;13082;52.374;4.946;2024-01-06T08:43:03;5.40;;;3.80;;
25091;SDS011;13082;52.374;4.946;2024-01-06T08:45:29;6.47;;;4.10;;
25091;SDS011;13082;52.374;4.946;2024-01-06T08:47:54;5.13;;;3.43;;
25091;SDS011;13082;52.374;4.946;2024-01-06T08:50:20;6.40;;;3.90;;
25091;SDS011;13082;52.374;4.946;2024-01-06T08:52:46;5.10;;;3.50;;
25091;SDS011;13082;52.374;4.946;2024-01-06T08:55:11;6.17;;;3.70;;
25091;SDS011;13082;52.374;4.946;2024-01-06T08:57:37;7.17;;;4.03;;
25091;SDS011;13082;52.374;4.946;2024-01-06T09:00:03;5.47;;;4.50;;
25091;SDS011;13082;52.374;4.946;2024-01-06T09:02:30;5.60;;;3.73;;
25091;SDS011;13082;52.374;4.946;2024-01-06T09:04:56;5.27;;;3.67;;
25091;SDS011;13082;52.374;4.946;2024-01-06T09:07:21;7.70;;;3.50;;
25091;SDS011;13082;52.374;4.946;2024-01-06T09:09:47;4.87;;;3.60;;
25091;SDS011;13082;52.374;4.946;2024-01-06T09:12:12;5.03;;;3.53;;
25091;SDS011;13082;52.374;4.946;2024-01-06T09:14:38;3.60;;;3.17;;
25091;SDS011;13082;52.374;4.946;2024-01-06T09:17:04;5.30;;;3.30;;
25091;SDS011;13082;52.374;4.946;2024-01-06T09:19:29;3.20;;;2.90;;
25091;SDS011;13082;52.374;4.946;2024-01-06T09:21:55;5.10;;;3.60;;
25091;SDS011;13082;52.374;4.946;2024-01-06T09:24:21;7.17;;;4.33;;
25091;SDS011;13082;52.374;4.946;2024-01-06T09:26:47;7.03;;;4.70;;
25091;SDS011;13082;52.374;4.946;2024-01-06T09:29:15;6.33;;;3.83;;
25091;SDS011;13082;52.374;4.946;2024-01-06T09:31:41;5.00;;;3.47;;
25091;SDS011;13082;52.374;4.946;2024-01-06T09:34:09;7.87;;;4.00;;
25091;SDS011;13082;52.374;4.946;2024-01-06T09:36:35;6.40;;;3.83;;
25091;SDS011;13082;52.374;4.946;2024-01-06T09:39:00;7.07;;;4.10;;
25091;SDS011;13082;52.374;4.946;2024-01-06T09:41:26;6.27;;;4.30;;
25091;SDS011;13082;52.374;4.946;2024-01-06T09:43:52;5.27;;;4.30;;
25091;SDS011;13082;52.374;4.946;2024-01-06T09:46:21;8.10;;;4.67;;
25091;SDS011;13082;52.374;4.946;2024-01-06T09:48:51;5.17;;;4.33;;
25091;SDS011;13082;52.374;4.946;2024-01-06T09:51:21;4.97;;;4.10;;
25091;SDS011;13082;52.374;4.946;2024-01-06T09:53:49;5.83;;;4.10;;
25091;SDS011;13082;52.374;4.946;2024-01-06T09:56:25;4.83;;;4.33;;
25091;SDS011;13082;52.374;4.946;2024-01-06T09:58:51;5.50;;;4.20;;
25091;SDS011;13082;52.374;4.946;2024-01-06T10:01:17;4.50;;;3.83;;
25091;SDS011;13082;52.374;4.946;2024-01-06T10:03:43;5.37;;;4.13;;
25091;SDS011;13082;52.374;4.946;2024-01-06T10:06:15;6.23;;;3.80;;
25091;SDS011;13082;52.374;4.946;2024-01-06T10:08:46;7.03;;;4.80;;
25091;SDS011;13082;52.374;4.946;2024-01-06T10:11:13;4.97;;;4.00;;
25091;SDS011;13082;52.374;4.946;2024-01-06T10:13:39;5.07;;;4.50;;
25091;SDS011;13082;52.374;4.946;2024-01-06T10:16:05;5.90;;;3.90;;
25091;SDS011;13082;52.374;4.946;2024-01-06T10:18:31;5.43;;;3.57;;
25091;SDS011;13082;52.374;4.946;2024-01-06T10:20:57;7.47;;;4.00;;
25091;SDS011;13082;52.374;4.946;2024-01-06T10:23:23;3.83;;;3.03;;
25091;SDS011;13082;52.374;4.946;2024-01-06T10:25:52;8.83;;;4.17;;
25091;SDS011;13082;52.374;4.946;2024-01-06T10:28:20;4.73;;;3.70;;
25091;SDS011;13082;52.374;4.946;2024-01-06T10:30:47;6.70;;;3.63;;
25091;SDS011;13082;52.374;4.946;2024-01-06T10:33:16;8.10;;;3.60;;
25091;SDS011;13082;52.374;4.946;2024-01-06T10:35:41;5.77;;;3.77;;
25091;SDS011;13082;52.374;4.946;2024-01-06T10:38:07;5.27;;;3.83;;
25091;SDS011;13082;52.374;4.946;2024-01-06T10:40:33;5.40;;;4.17;;
25091;SDS011;13082;52.374;4.946;2024-01-06T10:42:59;4.97;;;4.20;;
25091;SDS011;13082;52.374;4.946;2024-01-06T10:45:25;5.73;;;3.50;;
25091;SDS011;13082;52.374;4.946;2024-01-06T10:47:53;5.00;;;3.97;;
25091;SDS011;13082;52.374;4.946;2024-01-06T10:50:20;5.77;;;3.83;;
25091;SDS011;13082;52.374;4.946;2024-01-06T10:52:47;6.67;;;3.33;;
25091;SDS011;13082;52.374;4.946;2024-01-06T10:55:14;6.93;;;3.93;;
25091;SDS011;13082;52.374;4.946;2024-01-06T10:57:45;5.53;;;3.77;;
25091;SDS011;13082;52.374;4.946;2024-01-06T11:00:11;4.97;;;3.80;;
25091;SDS011;13082;52.374;4.946;2024-01-06T11:02:38;6.93;;;4.33;;
25091;SDS011;13082;52.374;4.946;2024-01-06T11:05:04;6.17;;;4.00;;
25091;SDS011;13082;52.374;4.946;2024-01-06T11:07:35;4.07;;;3.30;;
25091;SDS011;13082;52.374;4.946;2024-01-06T11:10:04;5.47;;;4.13;;
25091;SDS011;13082;52.374;4.946;2024-01-06T11:12:30;5.10;;;3.53;;
25091;SDS011;13082;52.374;4.946;2024-01-06T11:14:56;5.57;;;3.83;;
25091;SDS011;13082;52.374;4.946;2024-01-06T11:20:20;7.43;;;4.20;;
25091;SDS011;13082;52.374;4.946;2024-01-06T11:22:49;5.07;;;3.80;;
25091;SDS011;13082;52.374;4.946;2024-01-06T11:25:16;6.00;;;3.70;;
25091;SDS011;13082;52.374;4.946;2024-01-06T11:27:44;4.83;;;3.87;;
25091;SDS011;13082;52.374;4.946;2024-01-06T11:30:20;5.67;;;3.77;;
25091;SDS011;13082;52.374;4.946;2024-01-06T11:32:48;4.50;;;3.87;;
25091;SDS011;13082;52.374;4.946;2024-01-06T11:35:17;3.80;;;3.33;;
25091;SDS011;13082;52.374;4.946;2024-01-06T11:40:15;5.00;;;3.97;;
25091;SDS011;13082;52.374;4.946;2024-01-06T11:42:56;5.47;;;3.90;;
25091;SDS011;13082;52.374;4.946;2024-01-06T11:45:36;4.80;;;4.03;;
25091;SDS011;13082;52.374;4.946;2024-01-06T11:48:04;5.17;;;3.77;;
25091;SDS011;13082;52.374;4.946;2024-01-06T11:50:31;5.93;;;3.53;;
25091;SDS011;13082;52.374;4.946;2024-01-06T11:52:58;4.17;;;3.63;;
25091;SDS011;13082;52.374;4.946;2024-01-06T11:55:24;4.83;;;3.27;;
25091;SDS011;13082;52.374;4.946;2024-01-06T11:57:53;6.07;;;2.87;;
25091;SDS011;13082;52.374;4.946;2024-01-06T12:00:19;3.20;;;2.90;;
25091;SDS011;13082;52.374;4.946;2024-01-06T12:02:45;4.13;;;3.10;;
25091;SDS011;13082;52.374;4.946;2024-01-06T12:05:17;6.83;;;3.50;;
25091;SDS011;13082;52.374;4.946;2024-01-06T12:07:43;3.97;;;3.08;;
25091;SDS011;13082;52.374;4.946;2024-01-06T12:10:19;4.37;;;2.60;;
25091;SDS011;13082;52.374;4.946;2024-01-06T12:12:55;2.27;;;2.07;;
25091;SDS011;13082;52.374;4.946;2024-01-06T12:15:23;3.40;;;1.93;;
25091;SDS011;13082;52.374;4.946;2024-01-06T12:17:49;2.77;;;2.37;;
25091;SDS011;13082;52.374;4.946;2024-01-06T12:20:15;3.63;;;2.70;;
25091;SDS011;13082;52.374;4.946;2024-01-06T12:22:40;2.97;;;2.20;;
25091;SDS011;13082;52.374;4.946;2024-01-06T12:25:06;2.90;;;2.20;;
25091;SDS011;13082;52.374;4.946;2024-01-06T12:27:33;2.30;;;1.90;;
25091;SDS011;13082;52.374;4.946;2024-01-06T12:29:59;2.33;;;1.93;;
25091;SDS011;13082;52.374;4.946;2024-01-06T12:32:25;4.23;;;2.30;;
25091;SDS011;13082;52.374;4.946;2024-01-06T12:34:51;3.67;;;2.60;;
25091;SDS011;13082;52.374;4.946;2024-01-06T12:37:16;4.13;;;3.10;;
25091;SDS011;13082;52.374;4.946;2024-01-06T12:39:42;4.73;;;2.97;;
25091;SDS011;13082;52.374;4.946;2024-01-06T12:42:10;4.70;;;3.07;;
25091;SDS011;13082;52.374;4.946;2024-01-06T12:44:36;4.37;;;2.83;;
25091;SDS011;13082;52.374;4.946;2024-01-06T12:47:03;4.53;;;3.30;;
25091;SDS011;13082;52.374;4.946;2024-01-06T12:49:29;7.43;;;2.80;;
25091;SDS011;13082;52.374;4.946;2024-01-06T12:51:55;3.43;;;2.73;;
25091;SDS011;13082;52.374;4.946;2024-01-06T12:54:21;4.80;;;2.90;;
25091;SDS011;13082;52.374;4.946;2024-01-06T12:56:46;3.40;;;2.83;;
25091;SDS011;13082;52.374;4.946;2024-01-06T12:59:12;6.13;;;3.17;;
25091;SDS011;13082;52.374;4.946;2024-01-06T13:01:38;4.83;;;2.70;;
25091;SDS011;13082;52.374;4.946;2024-01-06T13:04:04;3.50;;;2.60;;
25091;SDS011;13082;52.374;4.946;2024-01-06T13:06:30;5.50;;;3.03;;
25091;SDS011;13082;52.374;4.946;2024-01-06T13:08:55;3.50;;;2.53;;
25091;SDS011;13082;52.374;4.946;2024-01-06T13:11:21;3.93;;;3.20;;
25091;SDS011;13082;52.374;4.946;2024-01-06T13:13:47;5.23;;;3.00;;
25091;SDS011;13082;52.374;4.946;2024-01-06T13:16:13;5.80;;;3.47;;
25091;SDS011;13082;52.374;4.946;2024-01-06T13:18:38;3.57;;;2.73;;
25091;SDS011;13082;52.374;4.946;2024-01-06T13:21:04;4.40;;;2.20;;
25091;SDS011;13082;52.374;4.946;2024-01-06T13:23:30;4.67;;;2.40;;
25091;SDS011;13082;52.374;4.946;2024-01-06T13:25:55;2.20;;;2.00;;
25091;SDS011;13082;52.374;4.946;2024-01-06T13:28:22;2.77;;;2.23;;
25091;SDS011;13082;52.374;4.946;2024-01-06T13:30:49;3.27;;;2.80;;
25091;SDS011;13082;52.374;4.946;2024-01-06T13:33:15;5.07;;;2.97;;
25091;SDS011;13082;52.374;4.946;2024-01-06T13:35:41;4.20;;;3.50;;
25091;SDS011;13082;52.374;4.946;2024-01-06T13:38:06;5.77;;;4.07;;
25091;SDS011;13082;52.374;4.946;2024-01-06T13:40:34;4.73;;;3.87;;
25091;SDS011;13082;52.374;4.946;2024-01-06T13:42:59;7.23;;;4.20;;
25091;SDS011;13082;52.374;4.946;2024-01-06T13:45:25;7.13;;;4.07;;
25091;SDS011;13082;52.374;4.946;2024-01-06T13:47:51;5.47;;;4.00;;
25091;SDS011;13082;52.374;4.946;2024-01-06T13:50:17;5.37;;;3.93;;
25091;SDS011;13082;52.374;4.946;2024-01-06T13:52:43;8.10;;;4.20;;
25091;SDS011;13082;52.374;4.946;2024-01-06T13:55:10;5.47;;;4.30;;
25091;SDS011;13082;52.374;4.946;2024-01-06T13:57:36;8.30;;;4.20;;
25091;SDS011;13082;52.374;4.946;2024-01-06T14:00:06;7.03;;;4.03;;
25091;SDS011;13082;52.374;4.946;2024-01-06T14:02:32;5.83;;;4.20;;
25091;SDS011;13082;52.374;4.946;2024-01-06T14:04:58;5.40;;;3.70;;
25091;SDS011;13082;52.374;4.946;2024-01-06T14:07:24;6.60;;;3.80;;
25091;SDS011;13082;52.374;4.946;2024-01-06T14:09:50;6.33;;;4.00;;
25091;SDS011;13082;52.374;4.946;2024-01-06T14:12:16;5.50;;;3.67;;
25091;SDS011;13082;52.374;4.946;2024-01-06T14:14:41;5.63;;;3.80;;
25091;SDS011;13082;52.374;4.946;2024-01-06T14:17:07;5.43;;;3.57;;
25091;SDS011;13082;52.374;4.946;2024-01-06T14:19:33;6.40;;;3.77;;
25091;SDS011;13082;52.374;4.946;2024-01-06T14:21:59;4.33;;;3.80;;
25091;SDS011;13082;52.374;4.946;2024-01-06T14:24:24;5.80;;;4.10;;
25091;SDS011;13082;52.374;4.946;2024-01-06T14:26:50;5.07;;;4.40;;
25091;SDS011;13082;52.374;4.946;2024-01-06T14:29:16;6.00;;;4.37;;
25091;SDS011;13082;52.374;4.946;2024-01-06T14:31:42;6.07;;;4.10;;
25091;SDS011;13082;52.374;4.946;2024-01-06T14:34:08;4.60;;;3.77;;
25091;SDS011;13082;52.374;4.946;2024-01-06T14:36:34;5.57;;;4.67;;
25091;SDS011;13082;52.374;4.946;2024-01-06T14:39:00;6.63;;;4.13;;
25091;SDS011;13082;52.374;4.946;2024-01-06T14:41:26;7.70;;;4.80;;
25091;SDS011;13082;52.374;4.946;2024-01-06T14:43:51;8.30;;;4.53;;
25091;SDS011;13082;52.374;4.946;2024-01-06T14:46:17;5.27;;;4.20;;